• Join FlightAware (Why Join?)
  • Login
  • US Flag 
04:26AM EDT


 

Airport Tracker/Info


-or-


 

Live Flight TrackerFlight Track Log ✈ UAL4301 ✈ 07-May-2013 ✈ KIAH - KAEX

Flight Track Log - Related Links

Times and Time Zones

All times are in EDT time to prevent confusion due to time zone crossing. See the UAL4301 flight status page for this flight to view local times or setup timezone preferences in your user account.

Time Position Orientation Groundspeed Altitude Reporting Facility
EDT Latitude Longitude Course Direction KTS MPH feet Rate Location/Type
09:27PM 29.9583 -95.3753 247° West 204 235 2,700  Level Houston Center
09:28PM 30.0147 -95.3492 22° Northeast 247 284 5,700 2,580 Climbing Houston Center
09:29PM 30.0283 -95.3369 38° Northeast 235 270 6,400 2,940 Climbing Houston Center
09:29PM 30.0711 -95.3014 36° Northeast 258 297 8,700 2,820 Climbing Houston Center
09:30PM 30.2844 -95.0897 32° Northeast  Level FlightAware Approximate
09:30PM 30.0864 -95.2883 36° Northeast 251 289 9,300  Level Houston Center
09:30PM 30.1311 -95.2458 39° Northeast 290 334 10,700 1,560 Climbing Houston Center
09:31PM 30.3614 -95.0309 35° Northeast  Level FlightAware Approximate
09:31PM 30.1492 -95.2286 40° Northeast 285 328 10,900  Level Houston Center
09:32PM 30.4344 -94.9656 41° Northeast  Level FlightAware Approximate
09:32PM 30.2358 -95.1353 43° Northeast 351 404 12,300  Level Houston Center
09:33PM 30.3208 -95.0708 33° Northeast 365 420 14,100 1,800 Climbing Houston Center
09:34PM 30.4064 -95.0056 33° Northeast 367 422 16,100 1,380 Climbing Houston Center
09:35PM 30.4619 -94.9061 57° Northeast 387 445 17,000 420 Climbing Houston Center
09:36PM 30.5069 -94.7828 67° East 416 479 17,000  Level Houston Center
09:37PM 30.5497 -94.6547 69° East 425 489 17,000  Level Houston Center
09:38PM 30.5933 -94.5289 68° East 424 488 17,000 -60 Level Houston Center
09:39PM 30.6408 -94.3853 69° East 423 487 16,900 -60 Descending Houston Center
09:40PM 30.6850 -94.2575 68° East 425 489 16,900  Level Houston Center
09:41PM 30.7281 -94.1292 69° East 425 489 16,900  Level Houston Center
09:42PM 30.7633 -94.0175 70° East 420 483 16,900  Level Houston Center
09:43PM 30.8044 -93.8931 69° East 421 484 16,900  Level Houston Center
09:44PM 30.8581 -93.7678 63° Northeast 417 480 16,900  Level Houston Center
09:45PM 30.9122 -93.6544 61° Northeast 415 478 16,900  Level Houston Center
09:46PM 30.9722 -93.5331 60° Northeast 415 478 16,900  Level Houston Center
09:47PM 31.0297 -93.4094 61° Northeast 414 476 16,900 -1,080 Level Houston Center
09:48PM 31.0889 -93.2914 60° Northeast 399 459 14,500 -2,160 Descending Houston Center
09:49PM 31.1361 -93.1989 59° Northeast 373 429 12,600 -1,680 Descending Houston Center
09:50PM 31.1783 -93.1028 63° Northeast 286 329 11,600 -1,140 Descending Houston Center
09:50PM 31.1861 -93.0831 65° Northeast 309 356 11,200 -2,280 Descending Houston Center
09:51PM 31.2153 -93.0242 60° Northeast 283 326 9,300 -2,280 Descending Houston Center
09:51PM 31.2264 -92.9989 63° Northeast 295 339 8,900 -1,740 Descending Houston Center
09:52PM 31.2561 -92.9403 59° Northeast 284 327 7,600 -1,380 Descending Houston Center
09:52PM 31.2644 -92.9200 64° Northeast 286 329 7,500 -1,380 Descending Houston Center
09:53PM 31.2911 -92.8642 61° Northeast 275 316 6,200 -1,680 Descending Houston Center
09:53PM 31.3022 -92.8422 59° Northeast 278 320 5,800 -1,680 Descending Houston Center
09:54PM 31.3297 -92.7828 62° Northeast 272 313 4,500 -1,500 Descending Houston Center
09:54PM 31.3381 -92.7639 63° Northeast 273 314 4,300 -1,800 Descending Houston Center
09:55PM 31.3600 -92.7019 67° East 264 304 2,700 -2,280 Descending Houston Center